Flight Track Log - Related Links

Times and Time Zones

All times are in EDT time to prevent confusion due to time zone crossing. See the SWA2122 flight status page for this flight to view local times or setup timezone preferences in your user account.

Time Position Orientation Groundspeed Altitude Reporting Facility
EDT Latitude Longitude Course Direction KTS MPH feet Rate Location/Type
Sat 11:23:40 AM 36.1833 -86.5833 58° Northeast 239 275 3,000  Level Nashville TRACON
Sat 11:24:40 AM 36.1167 -86.5333 149° Southeast 294 338 5,300 2,579 Climbing Nashville TRACON
Sat 11:25:34 AM 36.0500 -86.5333 180° South 293 337 7,900 2,893 Climbing Nashville TRACON
Sat 11:26:32 AM 35.9739 -86.5097 166° South 299 344 10,700 2,186 Climbing Memphis Center
Sat 11:27:32 AM 35.8794 -86.4936 172° South 321 369 12,200 1,950 Climbing Memphis Center
Sat 11:28:32 AM 35.7744 -86.4731 171° South 366 421 14,600 2,229 Climbing Memphis Center
Sat 11:30:27 AM 35.5719 -86.4311 170° South 396 456 18,700 2,057 Climbing Atlanta Center
Sat 11:31:27 AM 35.4639 -86.4075 170° South 396 456 20,600 1,950 Climbing Atlanta Center
Sat 11:32:27 AM 35.3561 -86.3764 167° South 396 456 22,600 1,750 Climbing Atlanta Center
Sat 11:33:27 AM 35.2467 -86.3147 155° Southeast 414 476 24,100 1,450 Climbing Atlanta Center
Sat 11:34:27 AM 35.1414 -86.2561 156° South 425 489 25,500 1,450 Climbing Atlanta Center
Sat 11:35:27 AM 35.0275 -86.1947 156° South 430 495 27,000 1,300 Climbing Atlanta Center
Sat 11:36:27 AM 34.9364 -86.1544 160° South 436 502 28,100 1,350 Climbing Atlanta Center
Sat 11:37:27 AM 34.7997 -86.0978 161° South 436 502 29,700 1,500 Climbing Atlanta Center
Sat 11:38:27 AM 34.6878 -86.0494 160° South 431 496 31,100 1,350 Climbing Atlanta Center
Sat 11:39:27 AM 34.5800 -86.0017 160° South 426 490 32,400 1,250 Climbing Atlanta Center
Sat 11:40:27 AM 34.4703 -85.9561 161° South 418 481 33,600 1,200 Climbing Atlanta Center
Sat 11:41:27 AM 34.3644 -85.9111 161° South 413 475 34,800 650 Climbing Atlanta Center
Sat 11:42:27 AM 34.2567 -85.8658 161° South 413 475 34,900 50 Climbing Atlanta Center
Sat 11:43:27 AM 34.1486 -85.8208 161° South 407 468 34,900  Level Atlanta Center
Sat 11:44:27 AM 34.0511 -85.7864 164° South 407 468 34,900  Level Atlanta Center
Sat 11:45:27 AM 33.9350 -85.7364 160° South 407 468 34,900  Level Atlanta Center
Sat 11:46:27 AM 33.8228 -85.6917 162° South 407 468 34,900  Level Atlanta Center
Sat 11:47:27 AM 33.7169 -85.6422 159° South 407 468 34,900  Level Atlanta Center
Sat 11:48:27 AM 33.6092 -85.6003 162° South 407 468 34,900  Level Atlanta Center
Sat 11:49:27 AM 33.5011 -85.5558 161° South 407 468 34,900  Level Atlanta Center
Sat 11:50:27 AM 33.3953 -85.5117 161° South 407 468 34,900  Level Atlanta Center
Sat 11:51:27 AM 33.2850 -85.4678 162° South 407 468 34,900  Level Atlanta Center
Sat 11:52:27 AM 33.1811 -85.4264 162° South 402 463 34,900  Level Atlanta Center
Sat 11:53:27 AM 33.0711 -85.3775 160° South 407 468 34,900  Level Atlanta Center
Sat 11:54:27 AM 32.9650 -85.3311 160° South 407 468 34,900  Level Atlanta Center
Sat 11:55:27 AM 32.8592 -85.2853 160° South 407 468 34,900  Level Atlanta Center
Sat 11:56:27 AM 32.7511 -85.2442 162° South 407 468 34,900  Level Atlanta Center
Sat 11:57:27 AM 32.6428 -85.1983 160° South 407 468 34,900  Level Atlanta Center
Sat 11:58:27 AM 32.5264 -85.1522 162° South 412 474 34,900  Level Atlanta Center
Sat 11:59:27 AM 32.4225 -85.1092 161° South 420 483 34,900  Level Atlanta Center
Sat 12:00:27 PM 32.3100 -85.0661 162° South 415 478 34,900  Level Atlanta Center
Sat 12:01:27 PM 32.1978 -85.0256 163° South 415 478 34,900  Level Atlanta Center
Sat 12:02:27 PM 32.0875 -84.9825 162° South 420 483 34,900  Level Atlanta Center
Sat 12:02:52 PM 32.0411 -84.9586 156° South 419 482 34,900  Level Jacksonville Center
Sat 12:03:52 PM 31.9333 -84.9147 161° South 425 489 34,900  Level Jacksonville Center
Sat 12:04:52 PM 31.8253 -84.8731 162° South 420 483 34,900  Level Jacksonville Center
Sat 12:05:52 PM 31.7175 -84.8317 162° South 415 478 34,900  Level Jacksonville Center
Sat 12:06:52 PM 31.6075 -84.7881 161° South 421 484 34,900  Level Jacksonville Center
Sat 12:07:52 PM 31.4953 -84.7442 162° South 421 484 34,900  Level Jacksonville Center
Sat 12:08:52 PM 31.3894 -84.7008 161° South 416 479 34,900  Level Jacksonville Center
Sat 12:09:52 PM 31.2836 -84.6600 162° South 416 479 34,900  Level Jacksonville Center
Sat 12:10:52 PM 31.1736 -84.6167 161° South 416 479 34,900  Level Jacksonville Center
Sat 12:11:52 PM 31.0656 -84.5758 162° South 411 473 34,900  Level Jacksonville Center
Sat 12:12:52 PM 30.9575 -84.5328 161° South 411 473 34,900  Level Jacksonville Center
Sat 12:13:52 PM 30.8494 -84.4897 161° South 411 473 34,900  Level Jacksonville Center
Sat 12:14:52 PM 30.7436 -84.4467 161° South 411 473 34,900  Level Jacksonville Center
Sat 12:15:52 PM 30.6333 -84.4064 163° South 411 473 34,900  Level Jacksonville Center
Sat 12:16:52 PM 30.5253 -84.3564 158° South 411 473 34,900  Level Jacksonville Center
Sat 12:17:52 PM 30.4217 -84.2875 150° Southeast 411 473 34,900  Level Jacksonville Center
Sat 12:18:52 PM 30.3203 -84.2208 150° Southeast 421 484 34,900  Level Jacksonville Center
Sat 12:19:52 PM 30.2289 -84.1594 150° Southeast 421 484 34,900  Level Jacksonville Center
Sat 12:20:52 PM 30.1253 -84.0958 152° Southeast 421 484 34,900  Level Jacksonville Center
Sat 12:21:52 PM 30.0214 -84.0272 150° Southeast 421 484 34,900  Level Jacksonville Center
Sat 12:22:52 PM 29.9197 -83.9589 150° Southeast 421 484 34,900  Level Jacksonville Center
Sat 12:23:52 PM 29.8014 -83.8833 151° Southeast 426 490 34,900  Level Jacksonville Center
Sat 12:24:52 PM 29.6975 -83.8178 151° Southeast 433 498 34,900  Level Jacksonville Center
Sat 12:25:52 PM 29.5956 -83.7500 150° Southeast 433 498 34,900  Level Jacksonville Center
Sat 12:26:52 PM 29.4917 -83.6822 150° Southeast 433 498 34,900  Level Jacksonville Center
Sat 12:27:52 PM 29.3833 -83.6172 152° Southeast 433 498 34,900  Level Jacksonville Center
Sat 12:28:52 PM 29.2817 -83.5472 149° Southeast 433 498 34,900  Level Jacksonville Center
Sat 12:29:52 PM 29.1733 -83.4822 152° Southeast 433 498 34,900  Level Jacksonville Center
Sat 12:30:52 PM 29.0672 -83.4153 151° Southeast 433 498 34,900  Level Jacksonville Center
Sat 12:31:52 PM 28.9650 -83.3458 149° Southeast 433 498 34,900  Level Jacksonville Center
Sat 12:32:52 PM 28.8653 -83.2672 145° Southeast 433 498 34,900  Level Jacksonville Center
Sat 12:33:52 PM 28.7672 -83.1861 144° Southeast 438 504 34,900  Level Jacksonville Center
Sat 12:34:52 PM 28.6694 -83.1056 144° Southeast 438 504 34,900  Level Jacksonville Center
Sat 12:35:52 PM 28.5714 -83.0225 143° Southeast 443 510 34,900  Level Jacksonville Center
Sat 12:36:52 PM 28.4756 -82.9444 144° Southeast 437 503 34,900  Level Jacksonville Center
Sat 12:38:56 PM 28.2725 -82.7772 144° Southeast 459 528 34,900  Level Miami Center
Sat 12:39:56 PM 28.1736 -82.6944 144° Southeast 453 521 34,900  Level Miami Center
Sat 12:40:56 PM 28.0747 -82.6117 144° Southeast 453 521 34,900  Level Miami Center
Sat 12:41:56 PM 27.9778 -82.5317 144° Southeast 443 510 34,900  Level Miami Center
Sat 12:42:56 PM 27.8611 -82.4789 158° South 437 503 34,900 -400 Level Miami Center
Sat 12:43:56 PM 27.7664 -82.4436 162° South 427 491 34,100 -900 Descending Miami Center
Sat 12:44:56 PM 27.6533 -82.4031 162° South 420 483 33,100 -1,050 Descending Miami Center
Sat 12:45:56 PM 27.5339 -82.3575 161° South 414 476 32,000 -1,000 Descending Miami Center
Sat 12:46:56 PM 27.4208 -82.3169 162° South 414 476 31,100 -550 Descending Miami Center
Sat 12:47:56 PM 27.3208 -82.3075 175° South 398 458 30,900 -400 Descending Miami Center
Sat 12:48:56 PM 27.2042 -82.3603 202° Southwest 398 458 30,300 -850 Descending Miami Center
Sat 12:49:56 PM 27.0981 -82.4089 202° Southwest 405 466 29,200 -1,000 Descending Miami Center
Sat 12:50:56 PM 27.0044 -82.4022 176° South 410 472 28,300 -1,000 Descending Miami Center
Sat 12:51:56 PM 26.8800 -82.3800 171° South 410 472 27,200 -1,050 Descending Miami Center
Sat 12:52:56 PM 26.7722 -82.3586 170° South 403 464 26,200 -1,000 Descending Miami Center
Sat 12:53:56 PM 26.6631 -82.3233 164° South 403 464 25,200 -950 Descending Miami Center
Sat 12:54:56 PM 26.6022 -82.2136 122° Southeast 387 445 24,300 -950 Descending Miami Center
Sat 12:55:56 PM 26.5528 -82.0861 113° Southeast 406 467 23,300 -1,050 Descending Miami Center
Sat 12:56:56 PM 26.5069 -81.9658 113° Southeast 416 479 22,200 -1,100 Descending Miami Center
Sat 12:57:56 PM 26.4569 -81.8383 114° Southeast 411 473 21,100 -1,050 Descending Miami Center
Sat 12:58:56 PM 26.4128 -81.7275 114° Southeast 398 458 20,100 -950 Descending Miami Center
Sat 12:59:56 PM 26.3664 -81.6167 115° Southeast 393 452 19,200 -1,600 Descending Miami Center
Sat 01:00:56 PM 26.3219 -81.5036 114° Southeast 393 452 16,900 -1,200 Descending Miami Center
Sat 01:01:56 PM 26.2794 -81.3956 114° Southeast 393 452 16,800 -250 Descending Miami Center
Sat 01:02:56 PM 26.2386 -81.2967 115° Southeast 370 426 16,400 -2,300 Descending Miami Center
Sat 01:03:56 PM 26.1978 -81.1956 114° Southeast 358 412 12,200 -3,623 Descending Miami Center
Sat 01:04:42 PM 26.1606 -81.1133 117° Southeast 371 427 10,000 -2,067 Descending Miami Center
Sat 01:05:55 PM 26.1175 -81.0078 114° Southeast 300 345 8,100 -1,734 Descending Miami Center
Sat 01:06:50 PM 26.0906 -80.9306 111° Southeast 300 345 6,300 -1,138 Descending Miami Center
Sat 01:07:51 PM 26.0867 -80.8425 93° East 278 320 5,900 -197 Descending Miami Center
Sat 01:08:52 PM 26.0744 -80.7542 99° East 282 325 5,900 48 Level Miami Center
Sat 01:09:56 PM 26.0811 -80.6617 85° East 275 316 6,000  Climbing Miami Center
Sat 01:10:48 PM 26.0831 -80.5878 88° East 278 320 5,900 -56 Descending Miami Center
Sat 01:11:43 PM 26.0744 -80.5114 97° East 271 312 5,900 -885 Level Miami Center
Sat 01:12:50 PM 26.0747 -80.4164 90° East 268 308 4,100 -1,256 Descending Miami Center
Sat 01:13:52 PM 26.0744 -80.3403 90° East 230 265 3,200 -1,024 Descending Miami Center
Sat 01:14:53 PM 26.0739 -80.2778 91° East 188 216 2,000 -1,138 Descending Miami Center
Sat 01:15:48 PM 26.0750 -80.2292 89° East 157 181 1,000 -738 Descending Miami Center
Sat 01:16:55 PM 26.0719 -80.1758 94° East 168 193 500 469 Descending Miami Center
Sat 01:17:56 PM 26.1086 -80.1214 53° Northeast 238 274 2,000 1,230 Climbing Miami Center
Sat 01:18:57 PM 26.1658 -80.0906 26° Northeast 279 321 3,000 439 Climbing Miami Center
Sat 01:19:59 PM 26.1706 -80.1603 274° West 233 268 2,900 -49 Descending Miami Center
Sat 01:21:00 PM 26.1564 -80.2244 256° West 221 254 2,900  Level Miami Center
Sat 01:22:01 PM 26.1528 -80.2892 266° West 195 224 2,900 -246 Level Miami Center
Sat 01:23:02 PM 26.1083 -80.3203 212° Southwest 204 235 2,400 -443 Descending Miami Center
Sat 01:24:03 PM 26.0714 -80.2869 141° Southeast 192 221 2,000 -627 Descending Miami Center
Sat 01:25:16 PM 26.0750 -80.2222 86° East 158 182 1,000 -822 Descending Miami Center

Login

Don't have an account? Register now (free) for customized features, flight alerts, and more!